createdAt,value
2023-02-03T00:01:09.800Z,40.65
2023-02-03T00:21:09.815Z,40.63
2023-02-03T00:41:09.768Z,40.6
2023-02-03T01:01:09.812Z,40.53
2023-02-03T01:21:09.711Z,40.48
2023-02-03T01:41:09.725Z,40.44
2023-02-03T02:01:09.768Z,40.4
2023-02-03T02:21:09.681Z,40.36
2023-02-03T02:41:09.690Z,40.34
2023-02-03T03:01:09.754Z,40.32
2023-02-03T03:21:09.358Z,40.29
2023-02-03T03:41:09.606Z,40.22
2023-02-03T04:01:09.665Z,40.19
2023-02-03T04:21:09.551Z,40.16
2023-02-03T04:41:09.553Z,40.12
2023-02-03T05:01:09.600Z,40.1
2023-02-03T05:21:09.501Z,40.07
2023-02-03T05:41:09.480Z,40.05
2023-02-03T06:01:09.471Z,40.14
2023-02-03T06:41:09.431Z,40.06
2023-02-03T07:41:09.395Z,39.86
2023-02-03T08:01:09.350Z,39.83
2023-02-03T09:01:09.366Z,39.76
2023-02-03T09:21:09.319Z,39.94
2023-02-03T09:41:11.861Z,39.78
2023-02-03T10:01:09.308Z,39.77
2023-02-03T10:21:09.201Z,39.63
2023-02-03T10:41:09.296Z,39.58
2023-02-03T11:01:09.250Z,39.82
2023-02-03T11:21:08.903Z,39.53
2023-02-03T11:41:09.146Z,39.51
2023-02-03T12:01:09.149Z,39.49
2023-02-03T12:21:09.116Z,39.47
2023-02-03T12:41:09.072Z,39.46
2023-02-03T13:01:09.084Z,39.5
2023-02-03T13:21:09.030Z,39.5
2023-02-03T14:01:09.003Z,39.47
2023-02-03T14:21:08.972Z,39.49
2023-02-03T14:41:08.939Z,39.5
2023-02-03T15:01:08.946Z,39.51
2023-02-03T15:21:08.927Z,39.51
2023-02-03T15:41:08.911Z,39.5
2023-02-03T16:01:08.895Z,39.5
2023-02-03T16:21:08.595Z,39.5
2023-02-03T16:41:08.850Z,39.49
2023-02-03T17:01:08.939Z,39.48
2023-02-03T17:21:08.839Z,39.47
2023-02-03T18:01:08.772Z,39.45
2023-02-03T18:21:08.739Z,39.44
2023-02-03T18:41:08.454Z,39.43
2023-02-03T19:01:08.707Z,39.39
2023-02-03T19:21:08.731Z,39.37
2023-02-03T19:41:08.742Z,39.35
2023-02-03T20:01:08.686Z,39.34
2023-02-03T20:21:08.646Z,39.32
2023-02-03T20:41:08.613Z,39.29
2023-02-03T21:01:08.664Z,39.3
2023-02-03T21:21:08.611Z,39.3
2023-02-03T21:41:08.594Z,39.28
2023-02-03T22:01:08.639Z,39.28
2023-02-03T22:21:08.741Z,39.25
2023-02-03T22:41:08.572Z,39.24
2023-02-03T23:01:08.539Z,39.22
2023-02-03T23:21:08.505Z,39.21
